sensor_id;sensor_type;location;lat;lon;timestamp;temperature;humidity
20700;DHT22;10511;51.232;9.420;2023-05-19T00:01:01;9.50;99.90
20700;DHT22;10511;51.232;9.420;2023-05-19T00:03:28;9.60;99.90
20700;DHT22;10511;51.232;9.420;2023-05-19T00:05:57;9.60;99.90
20700;DHT22;10511;51.232;9.420;2023-05-19T00:08:29;9.50;99.90
20700;DHT22;10511;51.232;9.420;2023-05-19T00:10:57;9.50;99.90
20700;DHT22;10511;51.232;9.420;2023-05-19T00:13:25;9.50;99.90
20700;DHT22;10511;51.232;9.420;2023-05-19T00:15:52;9.50;99.90
20700;DHT22;10511;51.232;9.420;2023-05-19T00:18:19;9.50;99.90
20700;DHT22;10511;51.232;9.420;2023-05-19T00:20:47;9.50;99.90
20700;DHT22;10511;51.232;9.420;2023-05-19T00:23:14;9.50;99.90
20700;DHT22;10511;51.232;9.420;2023-05-19T00:25:42;9.40;99.90
20700;DHT22;10511;51.232;9.420;2023-05-19T00:28:09;9.40;99.90
20700;DHT22;10511;51.232;9.420;2023-05-19T00:30:36;9.40;99.90
20700;DHT22;10511;51.232;9.420;2023-05-19T00:33:03;9.40;99.90
20700;DHT22;10511;51.232;9.420;2023-05-19T00:35:30;9.40;99.90
20700;DHT22;10511;51.232;9.420;2023-05-19T00:37:57;9.40;99.90
20700;DHT22;10511;51.232;9.420;2023-05-19T00:40:24;9.40;99.90
20700;DHT22;10511;51.232;9.420;2023-05-19T00:42:52;9.40;99.90
20700;DHT22;10511;51.232;9.420;2023-05-19T00:45:19;9.40;99.90
20700;DHT22;10511;51.232;9.420;2023-05-19T00:47:46;9.30;99.90
20700;DHT22;10511;51.232;9.420;2023-05-19T00:50:14;9.30;99.90
20700;DHT22;10511;51.232;9.420;2023-05-19T00:52:40;9.30;99.90
20700;DHT22;10511;51.232;9.420;2023-05-19T00:55:08;9.30;99.90
20700;DHT22;10511;51.232;9.420;2023-05-19T00:57:35;9.30;99.90
20700;DHT22;10511;51.232;9.420;2023-05-19T01:00:05;9.20;99.90
20700;DHT22;10511;51.232;9.420;2023-05-19T01:02:33;9.20;99.90
20700;DHT22;10511;51.232;9.420;2023-05-19T01:05:00;9.20;99.90
20700;DHT22;10511;51.232;9.420;2023-05-19T01:07:27;9.10;99.90
20700;DHT22;10511;51.232;9.420;2023-05-19T01:09:55;9.10;99.90
20700;DHT22;10511;51.232;9.420;2023-05-19T01:12:22;9.10;99.90
20700;DHT22;10511;51.232;9.420;2023-05-19T01:14:49;9.10;99.90
20700;DHT22;10511;51.232;9.420;2023-05-19T01:17:22;9.00;99.90
20700;DHT22;10511;51.232;9.420;2023-05-19T01:20:00;9.00;99.90
20700;DHT22;10511;51.232;9.420;2023-05-19T01:22:44;9.00;99.90
20700;DHT22;10511;51.232;9.420;2023-05-19T01:28:35;8.90;99.90
20700;DHT22;10511;51.232;9.420;2023-05-19T01:31:09;8.90;99.90
20700;DHT22;10511;51.232;9.420;2023-05-19T01:33:39;8.80;99.90
20700;DHT22;10511;51.232;9.420;2023-05-19T01:36:07;8.80;99.90
20700;DHT22;10511;51.232;9.420;2023-05-19T01:38:36;8.80;99.90
20700;DHT22;10511;51.232;9.420;2023-05-19T01:41:05;8.80;99.90
20700;DHT22;10511;51.232;9.420;2023-05-19T01:43:32;8.80;99.90
20700;DHT22;10511;51.232;9.420;2023-05-19T01:46:00;8.80;99.90
20700;DHT22;10511;51.232;9.420;2023-05-19T01:48:29;8.80;99.90
20700;DHT22;10511;51.232;9.420;2023-05-19T01:50:56;8.80;99.90
20700;DHT22;10511;51.232;9.420;2023-05-19T01:53:23;8.80;99.90
20700;DHT22;10511;51.232;9.420;2023-05-19T01:55:51;8.80;99.90
20700;DHT22;10511;51.232;9.420;2023-05-19T01:58:34;8.70;99.90
20700;DHT22;10511;51.232;9.420;2023-05-19T02:01:10;8.80;99.90
20700;DHT22;10511;51.232;9.420;2023-05-19T02:03:52;8.70;99.90
20700;DHT22;10511;51.232;9.420;2023-05-19T02:06:29;8.80;99.90
20700;DHT22;10511;51.232;9.420;2023-05-19T02:09:02;8.70;99.90
20700;DHT22;10511;51.232;9.420;2023-05-19T02:11:35;8.70;99.90
20700;DHT22;10511;51.232;9.420;2023-05-19T02:14:08;8.70;99.90
20700;DHT22;10511;51.232;9.420;2023-05-19T02:16:36;8.70;99.90
20700;DHT22;10511;51.232;9.420;2023-05-19T02:19:05;8.60;99.90
20700;DHT22;10511;51.232;9.420;2023-05-19T02:21:32;8.50;99.90
20700;DHT22;10511;51.232;9.420;2023-05-19T02:23:59;8.50;99.90
20700;DHT22;10511;51.232;9.420;2023-05-19T02:26:26;8.50;99.90
20700;DHT22;10511;51.232;9.420;2023-05-19T02:28:53;8.40;99.90
20700;DHT22;10511;51.232;9.420;2023-05-19T02:31:20;8.40;99.90
20700;DHT22;10511;51.232;9.420;2023-05-19T02:33:47;8.40;99.90
20700;DHT22;10511;51.232;9.420;2023-05-19T02:36:15;8.40;99.90
20700;DHT22;10511;51.232;9.420;2023-05-19T02:38:42;8.40;99.90
20700;DHT22;10511;51.232;9.420;2023-05-19T02:41:09;8.30;99.90
20700;DHT22;10511;51.232;9.420;2023-05-19T02:43:36;8.30;99.90
20700;DHT22;10511;51.232;9.420;2023-05-19T02:46:03;8.20;99.90
20700;DHT22;10511;51.232;9.420;2023-05-19T02:48:30;8.20;99.90
20700;DHT22;10511;51.232;9.420;2023-05-19T02:50:56;8.20;99.90
20700;DHT22;10511;51.232;9.420;2023-05-19T02:53:25;8.20;99.90
20700;DHT22;10511;51.232;9.420;2023-05-19T02:55:52;8.20;99.90
20700;DHT22;10511;51.232;9.420;2023-05-19T02:58:19;8.20;99.90
20700;DHT22;10511;51.232;9.420;2023-05-19T03:00:46;8.30;99.90
20700;DHT22;10511;51.232;9.420;2023-05-19T03:03:12;8.30;99.90
20700;DHT22;10511;51.232;9.420;2023-05-19T03:05:40;8.30;99.90
20700;DHT22;10511;51.232;9.420;2023-05-19T03:08:07;8.10;99.90
20700;DHT22;10511;51.232;9.420;2023-05-19T03:10:35;8.10;99.90
20700;DHT22;10511;51.232;9.420;2023-05-19T03:13:02;8.10;99.90
20700;DHT22;10511;51.232;9.420;2023-05-19T03:15:29;8.00;99.90
20700;DHT22;10511;51.232;9.420;2023-05-19T03:17:57;8.10;99.90
20700;DHT22;10511;51.232;9.420;2023-05-19T03:20:23;8.10;99.90
20700;DHT22;10511;51.232;9.420;2023-05-19T03:22:50;8.00;99.90
20700;DHT22;10511;51.232;9.420;2023-05-19T03:25:17;8.00;99.90
20700;DHT22;10511;51.232;9.420;2023-05-19T03:27:45;8.00;99.90
20700;DHT22;10511;51.232;9.420;2023-05-19T03:30:13;8.00;99.90
20700;DHT22;10511;51.232;9.420;2023-05-19T03:32:40;8.00;99.90
20700;DHT22;10511;51.232;9.420;2023-05-19T03:35:07;8.00;99.90
20700;DHT22;10511;51.232;9.420;2023-05-19T03:37:34;8.00;99.90
20700;DHT22;10511;51.232;9.420;2023-05-19T03:40:01;8.00;99.90
20700;DHT22;10511;51.232;9.420;2023-05-19T03:42:29;7.90;99.90
20700;DHT22;10511;51.232;9.420;2023-05-19T03:44:58;7.90;99.90
20700;DHT22;10511;51.232;9.420;2023-05-19T03:47:25;7.90;99.90
20700;DHT22;10511;51.232;9.420;2023-05-19T03:49:51;7.90;99.90
20700;DHT22;10511;51.232;9.420;2023-05-19T03:52:18;7.90;99.90
20700;DHT22;10511;51.232;9.420;2023-05-19T03:54:45;7.90;99.90
20700;DHT22;10511;51.232;9.420;2023-05-19T03:57:13;7.90;99.90
20700;DHT22;10511;51.232;9.420;2023-05-19T03:59:40;8.00;99.90
20700;DHT22;10511;51.232;9.420;2023-05-19T04:02:09;7.90;99.90
20700;DHT22;10511;51.232;9.420;2023-05-19T04:04:36;7.90;99.90
20700;DHT22;10511;51.232;9.420;2023-05-19T04:07:03;7.90;99.90
20700;DHT22;10511;51.232;9.420;2023-05-19T04:09:31;7.90;99.90
20700;DHT22;10511;51.232;9.420;2023-05-19T04:11:59;7.90;99.90
20700;DHT22;10511;51.232;9.420;2023-05-19T04:14:27;7.90;99.90
20700;DHT22;10511;51.232;9.420;2023-05-19T04:16:54;7.90;99.90
20700;DHT22;10511;51.232;9.420;2023-05-19T04:19:22;7.90;99.90
20700;DHT22;10511;51.232;9.420;2023-05-19T04:21:49;7.90;99.90
20700;DHT22;10511;51.232;9.420;2023-05-19T04:24:16;8.00;99.90
20700;DHT22;10511;51.232;9.420;2023-05-19T04:26:42;8.00;99.90
20700;DHT22;10511;51.232;9.420;2023-05-19T04:29:11;8.10;99.90
20700;DHT22;10511;51.232;9.420;2023-05-19T04:31:38;8.20;99.90
20700;DHT22;10511;51.232;9.420;2023-05-19T04:34:06;8.20;99.90
20700;DHT22;10511;51.232;9.420;2023-05-19T04:36:35;8.20;99.90
20700;DHT22;10511;51.232;9.420;2023-05-19T04:39:03;8.10;99.90
20700;DHT22;10511;51.232;9.420;2023-05-19T04:41:32;8.10;99.90
20700;DHT22;10511;51.232;9.420;2023-05-19T04:43:59;8.10;99.90
20700;DHT22;10511;51.232;9.420;2023-05-19T04:46:26;8.10;99.90
20700;DHT22;10511;51.232;9.420;2023-05-19T04:48:54;8.10;99.90
20700;DHT22;10511;51.232;9.420;2023-05-19T04:51:21;8.20;99.90
20700;DHT22;10511;51.232;9.420;2023-05-19T04:53:54;8.30;99.90
20700;DHT22;10511;51.232;9.420;2023-05-19T04:56:20;8.30;99.90
20700;DHT22;10511;51.232;9.420;2023-05-19T04:58:52;8.30;99.90
20700;DHT22;10511;51.232;9.420;2023-05-19T05:01:19;8.30;99.90
20700;DHT22;10511;51.232;9.420;2023-05-19T05:03:50;8.30;99.90
20700;DHT22;10511;51.232;9.420;2023-05-19T05:06:19;8.30;99.90
20700;DHT22;10511;51.232;9.420;2023-05-19T05:08:46;8.30;99.90
20700;DHT22;10511;51.232;9.420;2023-05-19T05:11:15;8.30;99.90
20700;DHT22;10511;51.232;9.420;2023-05-19T05:13:42;8.30;99.90
20700;DHT22;10511;51.232;9.420;2023-05-19T05:16:11;8.30;99.90
20700;DHT22;10511;51.232;9.420;2023-05-19T05:18:38;8.40;99.90
20700;DHT22;10511;51.232;9.420;2023-05-19T05:21:06;8.40;99.90
20700;DHT22;10511;51.232;9.420;2023-05-19T05:23:33;8.40;99.90
20700;DHT22;10511;51.232;9.420;2023-05-19T05:26:03;8.40;99.90
20700;DHT22;10511;51.232;9.420;2023-05-19T05:28:34;8.40;99.90
20700;DHT22;10511;51.232;9.420;2023-05-19T05:31:01;8.40;99.90
20700;DHT22;10511;51.232;9.420;2023-05-19T05:33:27;8.40;99.90
20700;DHT22;10511;51.232;9.420;2023-05-19T05:35:55;8.40;99.90
20700;DHT22;10511;51.232;9.420;2023-05-19T05:38:22;8.40;99.90
20700;DHT22;10511;51.232;9.420;2023-05-19T05:40:48;8.50;99.90
20700;DHT22;10511;51.232;9.420;2023-05-19T05:43:17;8.50;99.90
20700;DHT22;10511;51.232;9.420;2023-05-19T05:45:45;8.60;99.90
20700;DHT22;10511;51.232;9.420;2023-05-19T05:48:13;8.70;99.90
20700;DHT22;10511;51.232;9.420;2023-05-19T05:50:42;8.70;99.90
20700;DHT22;10511;51.232;9.420;2023-05-19T05:53:11;8.80;99.90
20700;DHT22;10511;51.232;9.420;2023-05-19T05:55:40;8.90;99.90
20700;DHT22;10511;51.232;9.420;2023-05-19T05:58:07;8.90;99.90
20700;DHT22;10511;51.232;9.420;2023-05-19T06:00:35;9.00;99.90
20700;DHT22;10511;51.232;9.420;2023-05-19T06:03:04;9.10;99.90
20700;DHT22;10511;51.232;9.420;2023-05-19T06:05:30;9.20;99.90
20700;DHT22;10511;51.232;9.420;2023-05-19T06:07:57;9.30;99.90
20700;DHT22;10511;51.232;9.420;2023-05-19T06:10:24;9.50;99.90
20700;DHT22;10511;51.232;9.420;2023-05-19T06:12:51;9.70;99.90
20700;DHT22;10511;51.232;9.420;2023-05-19T06:15:18;10.00;99.90
20700;DHT22;10511;51.232;9.420;2023-05-19T06:17:45;10.20;99.90
20700;DHT22;10511;51.232;9.420;2023-05-19T06:20:13;10.30;99.90
20700;DHT22;10511;51.232;9.420;2023-05-19T06:22:40;10.40;99.90
20700;DHT22;10511;51.232;9.420;2023-05-19T06:25:08;10.50;99.90
20700;DHT22;10511;51.232;9.420;2023-05-19T06:27:35;10.60;99.90
20700;DHT22;10511;51.232;9.420;2023-05-19T06:30:02;10.60;99.90
20700;DHT22;10511;51.232;9.420;2023-05-19T06:32:29;10.60;99.90
20700;DHT22;10511;51.232;9.420;2023-05-19T06:34:56;10.80;99.90
20700;DHT22;10511;51.232;9.420;2023-05-19T06:37:24;10.90;99.90
20700;DHT22;10511;51.232;9.420;2023-05-19T06:39:52;11.10;99.90
20700;DHT22;10511;51.232;9.420;2023-05-19T06:42:19;11.20;99.90
20700;DHT22;10511;51.232;9.420;2023-05-19T06:44:47;11.30;99.90
20700;DHT22;10511;51.232;9.420;2023-05-19T06:47:14;11.50;99.90
20700;DHT22;10511;51.232;9.420;2023-05-19T06:49:41;11.70;99.90
20700;DHT22;10511;51.232;9.420;2023-05-19T06:52:08;11.80;99.90
20700;DHT22;10511;51.232;9.420;2023-05-19T06:54:37;11.90;99.90
20700;DHT22;10511;51.232;9.420;2023-05-19T06:57:04;12.00;99.90
20700;DHT22;10511;51.232;9.420;2023-05-19T06:59:31;12.10;99.90
20700;DHT22;10511;51.232;9.420;2023-05-19T07:01:58;12.00;99.90
20700;DHT22;10511;51.232;9.420;2023-05-19T07:04:26;12.20;99.90
20700;DHT22;10511;51.232;9.420;2023-05-19T07:06:53;12.20;99.90
20700;DHT22;10511;51.232;9.420;2023-05-19T07:09:20;12.30;99.90
20700;DHT22;10511;51.232;9.420;2023-05-19T07:11:48;12.40;99.90
20700;DHT22;10511;51.232;9.420;2023-05-19T07:14:15;12.40;99.90
20700;DHT22;10511;51.232;9.420;2023-05-19T07:16:42;12.50;99.90
20700;DHT22;10511;51.232;9.420;2023-05-19T07:19:09;12.60;99.90
20700;DHT22;10511;51.232;9.420;2023-05-19T07:21:36;12.80;99.90
20700;DHT22;10511;51.232;9.420;2023-05-19T07:24:03;12.80;99.90
20700;DHT22;10511;51.232;9.420;2023-05-19T07:26:30;12.80;99.90
20700;DHT22;10511;51.232;9.420;2023-05-19T07:28:58;12.80;99.90
20700;DHT22;10511;51.232;9.420;2023-05-19T07:31:25;12.90;99.90
20700;DHT22;10511;51.232;9.420;2023-05-19T07:33:52;13.00;99.90
20700;DHT22;10511;51.232;9.420;2023-05-19T07:36:19;13.00;99.90
20700;DHT22;10511;51.232;9.420;2023-05-19T07:38:46;13.10;99.90
20700;DHT22;10511;51.232;9.420;2023-05-19T07:41:13;13.10;99.90
20700;DHT22;10511;51.232;9.420;2023-05-19T07:43:40;13.20;99.90
20700;DHT22;10511;51.232;9.420;2023-05-19T07:46:08;13.30;99.90
20700;DHT22;10511;51.232;9.420;2023-05-19T07:48:35;13.40;99.90
20700;DHT22;10511;51.232;9.420;2023-05-19T07:51:02;13.60;99.90
20700;DHT22;10511;51.232;9.420;2023-05-19T07:53:29;13.70;99.90
20700;DHT22;10511;51.232;9.420;2023-05-19T07:55:56;13.80;99.90
20700;DHT22;10511;51.232;9.420;2023-05-19T07:58:23;13.90;99.90
20700;DHT22;10511;51.232;9.420;2023-05-19T08:00:50;13.90;99.90
20700;DHT22;10511;51.232;9.420;2023-05-19T08:03:19;14.00;99.90
20700;DHT22;10511;51.232;9.420;2023-05-19T08:05:47;14.10;99.90
20700;DHT22;10511;51.232;9.420;2023-05-19T08:08:14;14.20;99.90
20700;DHT22;10511;51.232;9.420;2023-05-19T08:10:41;14.40;99.90
20700;DHT22;10511;51.232;9.420;2023-05-19T08:13:08;14.70;99.90
20700;DHT22;10511;51.232;9.420;2023-05-19T08:15:35;14.90;99.90
20700;DHT22;10511;51.232;9.420;2023-05-19T08:18:02;14.90;99.90
20700;DHT22;10511;51.232;9.420;2023-05-19T08:20:31;15.00;99.90
20700;DHT22;10511;51.232;9.420;2023-05-19T08:22:58;15.10;99.90
20700;DHT22;10511;51.232;9.420;2023-05-19T08:25:28;15.10;99.90
20700;DHT22;10511;51.232;9.420;2023-05-19T08:27:55;15.10;99.90
20700;DHT22;10511;51.232;9.420;2023-05-19T08:30:22;15.10;99.90
20700;DHT22;10511;51.232;9.420;2023-05-19T08:32:49;15.00;99.90
20700;DHT22;10511;51.232;9.420;2023-05-19T08:35:16;14.90;99.90
20700;DHT22;10511;51.232;9.420;2023-05-19T08:37:44;14.90;99.90
20700;DHT22;10511;51.232;9.420;2023-05-19T08:40:15;15.10;99.90
20700;DHT22;10511;51.232;9.420;2023-05-19T08:42:43;15.10;99.90
20700;DHT22;10511;51.232;9.420;2023-05-19T08:45:10;15.10;99.90
20700;DHT22;10511;51.232;9.420;2023-05-19T08:47:37;15.20;99.90
20700;DHT22;10511;51.232;9.420;2023-05-19T08:50:06;15.50;99.90
20700;DHT22;10511;51.232;9.420;2023-05-19T08:52:41;15.70;99.90
20700;DHT22;10511;51.232;9.420;2023-05-19T08:55:22;16.00;99.90
20700;DHT22;10511;51.232;9.420;2023-05-19T08:57:52;16.10;99.90
20700;DHT22;10511;51.232;9.420;2023-05-19T09:00:19;16.10;99.90
20700;DHT22;10511;51.232;9.420;2023-05-19T09:02:48;16.10;99.90
20700;DHT22;10511;51.232;9.420;2023-05-19T09:05:16;16.20;99.90
20700;DHT22;10511;51.232;9.420;2023-05-19T09:07:44;16.20;99.90
20700;DHT22;10511;51.232;9.420;2023-05-19T09:10:12;16.40;99.90
20700;DHT22;10511;51.232;9.420;2023-05-19T09:12:43;16.10;99.90
20700;DHT22;10511;51.232;9.420;2023-05-19T09:15:11;15.70;99.90
20700;DHT22;10511;51.232;9.420;2023-05-19T09:17:38;15.50;99.90
20700;DHT22;10511;51.232;9.420;2023-05-19T09:20:06;15.60;99.90
20700;DHT22;10511;51.232;9.420;2023-05-19T09:22:40;15.80;99.90
20700;DHT22;10511;51.232;9.420;2023-05-19T09:25:19;16.00;99.90
20700;DHT22;10511;51.232;9.420;2023-05-19T09:27:49;15.80;99.90
20700;DHT22;10511;51.232;9.420;2023-05-19T09:30:16;15.60;99.90
20700;DHT22;10511;51.232;9.420;2023-05-19T09:32:44;15.60;99.90
20700;DHT22;10511;51.232;9.420;2023-05-19T09:35:11;15.50;99.90
20700;DHT22;10511;51.232;9.420;2023-05-19T09:37:41;15.50;99.90
20700;DHT22;10511;51.232;9.420;2023-05-19T09:40:09;15.80;99.90
20700;DHT22;10511;51.232;9.420;2023-05-19T09:42:37;15.90;99.90
20700;DHT22;10511;51.232;9.420;2023-05-19T09:45:06;16.10;99.90
20700;DHT22;10511;51.232;9.420;2023-05-19T09:47:34;16.30;99.90
20700;DHT22;10511;51.232;9.420;2023-05-19T09:50:04;16.30;99.90
20700;DHT22;10511;51.232;9.420;2023-05-19T09:52:34;16.00;99.90
20700;DHT22;10511;51.232;9.420;2023-05-19T09:55:01;15.80;99.90
20700;DHT22;10511;51.232;9.420;2023-05-19T09:57:33;15.80;99.90
20700;DHT22;10511;51.232;9.420;2023-05-19T10:00:03;15.90;99.90
20700;DHT22;10511;51.232;9.420;2023-05-19T10:02:42;16.00;99.90
20700;DHT22;10511;51.232;9.420;2023-05-19T10:05:11;16.20;99.90
20700;DHT22;10511;51.232;9.420;2023-05-19T10:07:41;16.20;99.90
20700;DHT22;10511;51.232;9.420;2023-05-19T10:10:11;16.00;99.90
20700;DHT22;10511;51.232;9.420;2023-05-19T10:12:38;15.90;99.90
20700;DHT22;10511;51.232;9.420;2023-05-19T10:15:08;16.20;99.90
20700;DHT22;10511;51.232;9.420;2023-05-19T10:17:37;16.40;99.90
20700;DHT22;10511;51.232;9.420;2023-05-19T10:20:07;16.40;99.90
20700;DHT22;10511;51.232;9.420;2023-05-19T10:22:35;16.30;99.90
20700;DHT22;10511;51.232;9.420;2023-05-19T10:25:02;15.90;99.90
20700;DHT22;10511;51.232;9.420;2023-05-19T10:27:31;15.80;99.90
20700;DHT22;10511;51.232;9.420;2023-05-19T10:30:03;16.00;99.90
20700;DHT22;10511;51.232;9.420;2023-05-19T10:32:32;16.50;99.90
20700;DHT22;10511;51.232;9.420;2023-05-19T10:35:31;16.40;99.90
20700;DHT22;10511;51.232;9.420;2023-05-19T10:38:08;16.30;99.90
20700;DHT22;10511;51.232;9.420;2023-05-19T10:40:42;16.10;99.90
20700;DHT22;10511;51.232;9.420;2023-05-19T10:43:24;16.60;99.90
20700;DHT22;10511;51.232;9.420;2023-05-19T10:45:53;17.30;99.90
20700;DHT22;10511;51.232;9.420;2023-05-19T10:48:20;17.60;99.90
20700;DHT22;10511;51.232;9.420;2023-05-19T10:50:52;17.80;99.90
20700;DHT22;10511;51.232;9.420;2023-05-19T10:53:19;17.90;99.90
20700;DHT22;10511;51.232;9.420;2023-05-19T10:55:50;17.90;99.90
20700;DHT22;10511;51.232;9.420;2023-05-19T10:58:48;18.00;99.90
20700;DHT22;10511;51.232;9.420;2023-05-19T11:01:17;18.20;99.90
20700;DHT22;10511;51.232;9.420;2023-05-19T11:03:47;18.10;99.90
20700;DHT22;10511;51.232;9.420;2023-05-19T11:06:20;17.90;99.90
20700;DHT22;10511;51.232;9.420;2023-05-19T11:08:56;17.60;99.90
20700;DHT22;10511;51.232;9.420;2023-05-19T11:11:23;17.50;99.90
20700;DHT22;10511;51.232;9.420;2023-05-19T11:13:51;17.30;99.90
20700;DHT22;10511;51.232;9.420;2023-05-19T11:16:25;17.00;99.90
20700;DHT22;10511;51.232;9.420;2023-05-19T11:18:53;17.30;99.90
20700;DHT22;10511;51.232;9.420;2023-05-19T11:21:22;17.70;99.90
20700;DHT22;10511;51.232;9.420;2023-05-19T11:23:50;18.00;99.90
20700;DHT22;10511;51.232;9.420;2023-05-19T11:26:39;17.90;99.90
20700;DHT22;10511;51.232;9.420;2023-05-19T11:29:06;17.50;99.90
20700;DHT22;10511;51.232;9.420;2023-05-19T11:31:35;17.20;99.90
20700;DHT22;10511;51.232;9.420;2023-05-19T11:34:02;17.50;99.90
20700;DHT22;10511;51.232;9.420;2023-05-19T11:36:35;17.60;99.90
20700;DHT22;10511;51.232;9.420;2023-05-19T11:39:03;17.20;99.90
20700;DHT22;10511;51.232;9.420;2023-05-19T11:41:30;17.50;99.90
20700;DHT22;10511;51.232;9.420;2023-05-19T11:43:57;17.60;99.90
20700;DHT22;10511;51.232;9.420;2023-05-19T11:46:24;17.80;99.90
20700;DHT22;10511;51.232;9.420;2023-05-19T11:48:52;18.00;99.90
20700;DHT22;10511;51.232;9.420;2023-05-19T11:51:20;18.30;99.90
20700;DHT22;10511;51.232;9.420;2023-05-19T11:53:49;18.50;99.90
20700;DHT22;10511;51.232;9.420;2023-05-19T11:56:18;18.40;99.90
20700;DHT22;10511;51.232;9.420;2023-05-19T11:58:46;18.50;99.90
20700;DHT22;10511;51.232;9.420;2023-05-19T12:01:12;18.80;99.90
20700;DHT22;10511;51.232;9.420;2023-05-19T12:03:39;18.70;99.60
20700;DHT22;10511;51.232;9.420;2023-05-19T12:06:06;18.70;99.90
20700;DHT22;10511;51.232;9.420;2023-05-19T12:08:34;18.60;99.90
20700;DHT22;10511;51.232;9.420;2023-05-19T12:11:04;18.50;99.90
20700;DHT22;10511;51.232;9.420;2023-05-19T12:13:32;18.70;99.90
20700;DHT22;10511;51.232;9.420;2023-05-19T12:15:59;18.50;99.00
20700;DHT22;10511;51.232;9.420;2023-05-19T12:18:28;18.10;99.50
20700;DHT22;10511;51.232;9.420;2023-05-19T12:20:56;18.30;99.90
20700;DHT22;10511;51.232;9.420;2023-05-19T12:23:23;18.20;99.90
20700;DHT22;10511;51.232;9.420;2023-05-19T12:25:50;18.20;99.90
20700;DHT22;10511;51.232;9.420;2023-05-19T12:28:18;18.40;99.90
20700;DHT22;10511;51.232;9.420;2023-05-19T12:30:47;18.50;99.10
20700;DHT22;10511;51.232;9.420;2023-05-19T12:33:16;18.40;99.20
20700;DHT22;10511;51.232;9.420;2023-05-19T12:35:44;18.20;99.70
20700;DHT22;10511;51.232;9.420;2023-05-19T12:38:13;18.10;99.70
20700;DHT22;10511;51.232;9.420;2023-05-19T12:40:41;18.20;99.50
20700;DHT22;10511;51.232;9.420;2023-05-19T12:43:08;18.40;99.30
20700;DHT22;10511;51.232;9.420;2023-05-19T12:45:45;18.30;99.90
20700;DHT22;10511;51.232;9.420;2023-05-19T12:48:13;17.80;99.30
20700;DHT22;10511;51.232;9.420;2023-05-19T12:50:42;17.60;99.90
20700;DHT22;10511;51.232;9.420;2023-05-19T12:53:10;17.80;99.90
20700;DHT22;10511;51.232;9.420;2023-05-19T12:55:38;18.00;99.90
20700;DHT22;10511;51.232;9.420;2023-05-19T12:58:07;18.20;99.80
20700;DHT22;10511;51.232;9.420;2023-05-19T13:00:39;18.20;99.50
20700;DHT22;10511;51.232;9.420;2023-05-19T13:03:14;18.30;99.90
20700;DHT22;10511;51.232;9.420;2023-05-19T13:05:45;18.40;99.90
20700;DHT22;10511;51.232;9.420;2023-05-19T13:08:14;18.50;99.30
20700;DHT22;10511;51.232;9.420;2023-05-19T13:10:42;18.40;99.00
20700;DHT22;10511;51.232;9.420;2023-05-19T13:13:09;18.30;99.20
20700;DHT22;10511;51.232;9.420;2023-05-19T13:15:37;18.30;99.50
20700;DHT22;10511;51.232;9.420;2023-05-19T13:18:08;18.50;99.20
20700;DHT22;10511;51.232;9.420;2023-05-19T13:20:36;19.00;99.90
20700;DHT22;10511;51.232;9.420;2023-05-19T13:23:04;19.20;99.70
20700;DHT22;10511;51.232;9.420;2023-05-19T13:25:32;19.20;99.40
20700;DHT22;10511;51.232;9.420;2023-05-19T13:27:59;18.90;99.40
20700;DHT22;10511;51.232;9.420;2023-05-19T13:30:29;18.80;99.90
20700;DHT22;10511;51.232;9.420;2023-05-19T13:32:56;18.80;99.60
20700;DHT22;10511;51.232;9.420;2023-05-19T13:35:24;18.90;99.10
20700;DHT22;10511;51.232;9.420;2023-05-19T13:37:51;18.90;98.90
20700;DHT22;10511;51.232;9.420;2023-05-19T13:40:18;19.00;99.60
20700;DHT22;10511;51.232;9.420;2023-05-19T13:42:45;19.00;98.40
20700;DHT22;10511;51.232;9.420;2023-05-19T13:45:12;18.80;99.20
20700;DHT22;10511;51.232;9.420;2023-05-19T13:47:39;18.70;99.00
20700;DHT22;10511;51.232;9.420;2023-05-19T13:50:07;18.80;99.70
20700;DHT22;10511;51.232;9.420;2023-05-19T13:52:35;18.80;99.70
20700;DHT22;10511;51.232;9.420;2023-05-19T13:55:02;18.60;98.90
20700;DHT22;10511;51.232;9.420;2023-05-19T13:57:29;18.30;98.40
20700;DHT22;10511;51.232;9.420;2023-05-19T13:59:56;18.20;99.70
20700;DHT22;10511;51.232;9.420;2023-05-19T14:02:23;18.40;99.10
20700;DHT22;10511;51.232;9.420;2023-05-19T14:04:50;18.30;99.20
20700;DHT22;10511;51.232;9.420;2023-05-19T14:07:17;18.40;99.90
20700;DHT22;10511;51.232;9.420;2023-05-19T14:09:45;18.30;99.40
20700;DHT22;10511;51.232;9.420;2023-05-19T14:12:12;18.30;99.80
20700;DHT22;10511;51.232;9.420;2023-05-19T14:14:39;18.20;99.50
20700;DHT22;10511;51.232;9.420;2023-05-19T14:17:06;18.20;99.70
20700;DHT22;10511;51.232;9.420;2023-05-19T14:19:33;18.20;99.10
20700;DHT22;10511;51.232;9.420;2023-05-19T14:22:00;18.10;99.90
20700;DHT22;10511;51.232;9.420;2023-05-19T14:24:27;18.00;99.40
20700;DHT22;10511;51.232;9.420;2023-05-19T14:26:55;18.00;99.90
20700;DHT22;10511;51.232;9.420;2023-05-19T14:29:22;17.80;99.80
20700;DHT22;10511;51.232;9.420;2023-05-19T14:31:49;17.90;99.90
20700;DHT22;10511;51.232;9.420;2023-05-19T14:34:16;18.00;98.80
20700;DHT22;10511;51.232;9.420;2023-05-19T14:36:45;18.10;99.90
20700;DHT22;10511;51.232;9.420;2023-05-19T14:39:12;18.10;99.50
20700;DHT22;10511;51.232;9.420;2023-05-19T14:41:39;17.90;99.00
20700;DHT22;10511;51.232;9.420;2023-05-19T14:44:07;17.90;99.50
20700;DHT22;10511;51.232;9.420;2023-05-19T14:46:34;17.80;98.50
20700;DHT22;10511;51.232;9.420;2023-05-19T14:49:01;17.80;98.90
20700;DHT22;10511;51.232;9.420;2023-05-19T14:51:30;17.60;99.10
20700;DHT22;10511;51.232;9.420;2023-05-19T14:53:57;17.50;98.70
20700;DHT22;10511;51.232;9.420;2023-05-19T14:56:24;17.70;99.40
20700;DHT22;10511;51.232;9.420;2023-05-19T14:58:51;17.90;99.70
20700;DHT22;10511;51.232;9.420;2023-05-19T15:01:19;18.00;99.00
20700;DHT22;10511;51.232;9.420;2023-05-19T15:03:46;18.00;98.90
20700;DHT22;10511;51.232;9.420;2023-05-19T15:06:13;18.10;99.00
20700;DHT22;10511;51.232;9.420;2023-05-19T15:08:40;18.10;99.40
20700;DHT22;10511;51.232;9.420;2023-05-19T15:11:07;18.10;99.90
20700;DHT22;10511;51.232;9.420;2023-05-19T15:13:34;18.20;99.90
20700;DHT22;10511;51.232;9.420;2023-05-19T15:16:00;18.10;99.00
20700;DHT22;10511;51.232;9.420;2023-05-19T15:18:29;18.00;98.70
20700;DHT22;10511;51.232;9.420;2023-05-19T15:20:56;18.10;99.50
20700;DHT22;10511;51.232;9.420;2023-05-19T15:23:22;18.20;99.60
20700;DHT22;10511;51.232;9.420;2023-05-19T15:25:49;18.30;98.80
20700;DHT22;10511;51.232;9.420;2023-05-19T15:28:18;18.10;98.40
20700;DHT22;10511;51.232;9.420;2023-05-19T15:30:45;17.90;98.40
20700;DHT22;10511;51.232;9.420;2023-05-19T15:33:11;17.80;99.80
20700;DHT22;10511;51.232;9.420;2023-05-19T15:35:40;17.90;98.90
20700;DHT22;10511;51.232;9.420;2023-05-19T15:38:06;17.90;98.80
20700;DHT22;10511;51.232;9.420;2023-05-19T15:40:33;18.00;99.00
20700;DHT22;10511;51.232;9.420;2023-05-19T15:43:00;18.00;99.50
20700;DHT22;10511;51.232;9.420;2023-05-19T15:45:27;17.90;99.10
20700;DHT22;10511;51.232;9.420;2023-05-19T15:47:54;17.70;98.80